KBJI

Bemidji Regional Airport

Bemidji, Minnesota, USA
METAR KBJI 140455Z AUTO 17004KT 10SM SCT065 M09/M13 A3030 RMK AO2 T10921127
Observed Flight Rules
Nov-14 @ 04:55 UTC (20 minutes ago) Visual Flight Rules
Wind Visibility Clouds
170° at 4 knots 10 miles
  • Scattered at 6,500' AGL
Temperatures Readings
Current -9°C / 16°F
Dewpoint -13°C / 9°F
Humidity 73%
Altimeter 30.3" Hg
Pressure 1026 hPa
Elevation 420
METAR KBJI 140455Z AUTO 17004KT 10SM SCT065 M09/M13 A3030 RMK AO2 T10921127
Observed Flight Rules
Nov-14 @ 04:55 UTC
(20 minutes ago)
VFR
Wind Visibility
170° at 4 knots 10 miles
Clouds
  • Scattered at 6,500' AGL
Temperature Dewpoint
-9°C / 16°F -13°C / 9°F
Humidity Altimeter Pressure
73% 30.3" Hg 1026 hPa